Terminal Aerodrome Forecast
Issued by NWS Northern Indiana

Home | Current Version | Previous Version | Text Only | Print | Product List | Glossary On
Versions: 1 2 3 4 5 6 7 8 9 10 11 12 13 14 15 16 17
558
FTUS43 KIWX 071125
TAFFWA
TAF
KFWA 071125Z 0712/0812 21008KT P6SM SCT250
     FM071500 22013G20KT P6SM BKN120
     FM072200 23012KT P6SM BKN080
     FM080600 25006KT P6SM OVC050=

USA.gov is the U.S. government's official web portal to all federal, state and local government web resources and services.